Terminal Aerodrome Forecast
Issued by NWS

Home | Current Version | Previous Version | Text Only | Print | Product List | Glossary On
Versions: 1 2 3 4 5 6 7 8 9 10 11 12 13 14 15
000
FTUS44 KLZK 280900 AAA
TAFLLQ
TAF AMD
KLLQ 280919Z 2809/2906 25005KT P6SM VCTS BKN030 BKN060CB
     FM281200 34003KT P6SM SCT250
     FM281800 36012KT P6SM SCT250
     FM290200 35006KT P6SM SKC=

USA.gov is the U.S. government's official web portal to all federal, state and local government web resources and services.